createdAt,value
2023-03-31T00:00:25.336Z,10.47
2023-03-31T00:01:25.316Z,10.46
2023-03-31T00:02:36.722Z,10.35
2023-03-31T00:03:26.630Z,10.42
2023-03-31T00:04:25.293Z,10.31
2023-03-31T00:05:25.282Z,10.35
2023-03-31T00:06:25.259Z,10.39
2023-03-31T00:07:25.271Z,10.36
2023-03-31T00:08:25.288Z,10.42
2023-03-31T00:09:25.263Z,10.35
2023-03-31T00:10:25.249Z,10.44
2023-03-31T00:11:25.247Z,10.31
2023-03-31T00:12:25.233Z,10.36
2023-03-31T00:13:25.227Z,10.29
2023-03-31T00:14:25.246Z,10.29
2023-03-31T00:15:25.216Z,10.20
2023-03-31T00:16:25.214Z,10.34
2023-03-31T00:17:25.249Z,10.29
2023-03-31T00:18:25.184Z,10.31
2023-03-31T00:19:25.185Z,10.32
2023-03-31T00:20:25.238Z,10.31
2023-03-31T00:21:25.588Z,10.22
2023-03-31T00:22:25.149Z,10.16
2023-03-31T00:23:25.140Z,10.25
2023-03-31T00:24:25.135Z,10.20
2023-03-31T00:25:25.146Z,10.24
2023-03-31T00:26:25.159Z,10.14
2023-03-31T00:27:25.148Z,10.28
2023-03-31T00:28:25.116Z,10.17
2023-03-31T00:29:25.119Z,10.31
2023-03-31T00:30:25.123Z,10.17
2023-03-31T00:31:25.129Z,10.26
2023-03-31T00:32:25.162Z,10.16
2023-03-31T00:33:25.069Z,10.20
2023-03-31T00:34:25.071Z,10.32
2023-03-31T00:35:25.067Z,10.32
2023-03-31T00:36:25.108Z,10.26
2023-03-31T00:37:25.073Z,10.32
2023-03-31T00:38:25.100Z,10.32
2023-03-31T00:39:25.045Z,10.29
2023-03-31T00:40:25.037Z,10.34
2023-03-31T00:41:25.024Z,10.31
2023-03-31T00:42:25.038Z,10.35
2023-03-31T00:43:24.996Z,10.38
2023-03-31T00:44:25.120Z,10.42
2023-03-31T00:45:25.142Z,10.49
2023-03-31T00:46:25.001Z,10.44
2023-03-31T00:47:24.989Z,10.47
2023-03-31T00:48:24.957Z,10.49
2023-03-31T00:49:24.971Z,10.57
2023-03-31T00:50:24.986Z,10.60
2023-03-31T00:51:24.967Z,10.60
2023-03-31T00:52:24.960Z,10.65
2023-03-31T00:53:24.959Z,10.66
2023-03-31T00:54:24.926Z,10.66
2023-03-31T00:55:26.261Z,10.72
2023-03-31T00:56:24.968Z,10.73
2023-03-31T00:57:24.947Z,10.65
2023-03-31T00:58:24.900Z,10.66
2023-03-31T00:59:24.897Z,10.65
2023-03-31T01:00:24.899Z,10.78
2023-03-31T01:01:25.050Z,10.73
2023-03-31T01:02:25.139Z,10.73
2023-03-31T01:03:24.901Z,10.80
2023-03-31T01:04:24.870Z,10.80
2023-03-31T01:05:24.844Z,10.75
2023-03-31T01:06:24.819Z,10.72
2023-03-31T01:07:24.819Z,10.72
2023-03-31T01:08:24.879Z,10.68
2023-03-31T01:09:24.822Z,10.76
2023-03-31T01:10:24.809Z,10.76
2023-03-31T01:11:24.804Z,10.66
2023-03-31T01:12:24.791Z,10.73
2023-03-31T01:13:24.792Z,10.75
2023-03-31T01:14:24.844Z,10.72
2023-03-31T01:15:24.765Z,10.68
2023-03-31T01:16:24.775Z,10.58
2023-03-31T01:17:24.968Z,10.62
2023-03-31T01:18:24.931Z,10.51
2023-03-31T01:19:24.790Z,10.52
2023-03-31T01:20:24.771Z,10.52
2023-03-31T01:21:24.718Z,10.46
2023-03-31T01:22:24.708Z,10.47
2023-03-31T01:23:24.729Z,10.47
2023-03-31T01:24:24.677Z,10.44
2023-03-31T01:25:24.716Z,10.47
2023-03-31T01:26:24.752Z,10.35
2023-03-31T01:27:24.676Z,10.35
2023-03-31T01:28:24.673Z,10.39
2023-03-31T01:29:24.675Z,10.31
2023-03-31T01:30:24.671Z,10.24
2023-03-31T01:31:24.779Z,10.16
2023-03-31T01:32:24.701Z,10.14
2023-03-31T01:33:24.659Z,10.11
2023-03-31T01:34:24.641Z,10.07
2023-03-31T01:35:24.660Z,10.01
2023-03-31T01:36:24.622Z,9.95
2023-03-31T01:37:24.602Z,9.93
2023-03-31T01:38:24.637Z,9.83
2023-03-31T01:39:24.613Z,9.88
2023-03-31T01:40:24.589Z,9.78
2023-03-31T01:41:24.583Z,9.85
2023-03-31T01:42:24.581Z,9.71
2023-03-31T01:43:24.583Z,9.70
2023-03-31T01:44:24.599Z,9.74
2023-03-31T01:45:24.566Z,9.74
2023-03-31T01:46:24.606Z,9.77
2023-03-31T01:47:24.560Z,9.67
2023-03-31T01:48:24.574Z,9.78
2023-03-31T01:49:24.598Z,9.70
2023-03-31T01:50:24.570Z,9.73
2023-03-31T01:51:24.546Z,9.70
2023-03-31T01:52:24.608Z,9.77
2023-03-31T01:53:24.501Z,9.75
2023-03-31T01:54:24.495Z,9.78
2023-03-31T01:55:24.514Z,9.70
2023-03-31T01:56:24.508Z,9.71
2023-03-31T01:57:24.572Z,9.70
2023-03-31T01:58:24.525Z,9.65
2023-03-31T01:59:24.450Z,9.55
2023-03-31T02:00:24.455Z,9.52
2023-03-31T02:01:24.496Z,9.55
2023-03-31T02:02:24.808Z,9.59
2023-03-31T02:03:24.598Z,9.68
2023-03-31T02:04:24.474Z,9.52
2023-03-31T02:05:24.405Z,9.58
2023-03-31T02:06:24.464Z,9.63
2023-03-31T02:07:24.419Z,9.58
2023-03-31T02:08:24.464Z,9.58
2023-03-31T02:09:24.427Z,9.62
2023-03-31T02:10:24.371Z,9.58
2023-03-31T02:11:24.376Z,9.58
2023-03-31T02:12:24.403Z,9.60
2023-03-31T02:13:24.386Z,9.60
2023-03-31T02:14:24.407Z,9.56
2023-03-31T02:15:24.366Z,9.62
2023-03-31T02:16:24.431Z,9.56
2023-03-31T02:17:24.388Z,9.60
2023-03-31T02:18:24.337Z,9.58
2023-03-31T02:19:24.338Z,9.63
2023-03-31T02:20:24.361Z,9.65
2023-03-31T02:21:24.294Z,9.55
2023-03-31T02:22:24.307Z,9.56
2023-03-31T02:23:24.299Z,9.53
2023-03-31T02:24:24.289Z,9.55
2023-03-31T02:25:24.281Z,9.59
2023-03-31T02:26:24.313Z,9.58
2023-03-31T02:27:24.288Z,9.62
2023-03-31T02:28:24.269Z,9.56
2023-03-31T02:29:24.262Z,9.58
2023-03-31T02:30:24.266Z,9.60
2023-03-31T02:31:24.280Z,9.53
2023-03-31T02:32:24.296Z,9.53
2023-03-31T02:33:24.226Z,9.52
2023-03-31T02:34:24.213Z,9.53
2023-03-31T02:35:24.234Z,9.44
2023-03-31T02:36:24.198Z,9.53
2023-03-31T02:37:24.210Z,9.56
2023-03-31T02:38:24.240Z,9.56
2023-03-31T02:39:24.162Z,9.53
2023-03-31T02:40:24.172Z,9.55
2023-03-31T02:41:24.160Z,9.55
2023-03-31T02:42:24.173Z,9.49
2023-03-31T02:43:24.140Z,9.59
2023-03-31T02:44:24.214Z,9.52
2023-03-31T02:45:24.315Z,9.55
2023-03-31T02:46:24.276Z,9.55
2023-03-31T02:47:24.244Z,9.49
2023-03-31T02:48:24.144Z,9.50
2023-03-31T02:49:24.121Z,9.44
2023-03-31T02:50:24.140Z,9.48
2023-03-31T02:51:24.203Z,9.45
2023-03-31T02:52:24.087Z,9.49
2023-03-31T02:53:24.089Z,9.49
2023-03-31T02:54:24.082Z,9.40
2023-03-31T02:55:24.058Z,9.48
2023-03-31T02:56:24.136Z,9.40
2023-03-31T02:57:24.131Z,9.52
2023-03-31T02:58:24.058Z,9.48
2023-03-31T02:59:24.067Z,9.42
2023-03-31T03:00:24.067Z,9.45
2023-03-31T03:01:24.045Z,9.41
2023-03-31T03:02:24.169Z,9.40
2023-03-31T03:03:24.014Z,9.49
2023-03-31T03:04:24.002Z,9.42
2023-03-31T03:05:24.023Z,9.42
2023-03-31T03:06:23.995Z,9.37
2023-03-31T03:07:23.974Z,9.48
2023-03-31T03:08:24.031Z,9.41
2023-03-31T03:09:24.009Z,9.40
2023-03-31T03:10:23.955Z,9.42
2023-03-31T03:11:23.957Z,9.45
2023-03-31T03:12:23.935Z,9.45
2023-03-31T03:13:23.950Z,9.38
2023-03-31T03:14:23.967Z,9.50
2023-03-31T03:15:23.934Z,9.40
2023-03-31T03:16:23.959Z,9.50
2023-03-31T03:17:23.950Z,9.48
2023-03-31T03:18:23.901Z,9.49
2023-03-31T03:19:23.906Z,9.41
2023-03-31T03:20:23.941Z,9.44
2023-03-31T03:21:23.905Z,9.37
2023-03-31T03:22:23.877Z,9.45
2023-03-31T03:23:23.893Z,9.42
2023-03-31T03:24:23.886Z,9.45
2023-03-31T03:25:23.876Z,9.42
2023-03-31T03:26:23.968Z,9.44
2023-03-31T03:27:23.848Z,9.35
2023-03-31T03:28:23.833Z,9.44
2023-03-31T03:29:23.860Z,9.42
2023-03-31T03:30:23.806Z,9.40
2023-03-31T03:31:23.927Z,9.42
2023-03-31T03:32:23.877Z,9.49
2023-03-31T03:33:23.838Z,9.45
2023-03-31T03:34:23.834Z,9.40
2023-03-31T03:35:23.787Z,9.37
2023-03-31T03:36:23.920Z,9.44
2023-03-31T03:37:23.774Z,9.41
2023-03-31T03:38:23.802Z,9.40
2023-03-31T03:39:23.780Z,9.45
2023-03-31T03:40:23.784Z,9.38
2023-03-31T03:41:23.733Z,9.42
2023-03-31T03:42:23.848Z,9.44
2023-03-31T03:43:23.736Z,9.41
2023-03-31T03:44:23.759Z,9.37
2023-03-31T03:45:23.716Z,9.48
2023-03-31T03:46:23.756Z,9.42
2023-03-31T03:47:23.736Z,9.40
2023-03-31T03:48:23.702Z,9.37
2023-03-31T03:49:23.678Z,9.44
2023-03-31T03:50:23.810Z,9.41
2023-03-31T03:51:23.684Z,9.31
2023-03-31T03:52:23.753Z,9.35
2023-03-31T03:53:23.665Z,9.31
2023-03-31T03:54:23.633Z,9.35
2023-03-31T03:55:23.663Z,9.31
2023-03-31T03:56:23.742Z,9.27
2023-03-31T03:57:23.690Z,9.35
2023-03-31T03:58:23.632Z,9.34
2023-03-31T03:59:26.217Z,9.35
2023-03-31T04:00:23.597Z,9.37
2023-03-31T04:01:23.594Z,9.35
2023-03-31T04:02:25.570Z,9.32
2023-03-31T04:03:23.618Z,9.37
2023-03-31T04:04:23.581Z,9.41
2023-03-31T04:05:23.621Z,9.45
2023-03-31T04:06:23.542Z,9.42
2023-03-31T04:07:23.558Z,9.38
2023-03-31T04:08:23.934Z,9.31
2023-03-31T04:09:23.559Z,9.32
2023-03-31T04:10:23.672Z,9.41
2023-03-31T04:11:23.526Z,9.44
2023-03-31T04:12:23.517Z,9.41
2023-03-31T04:13:23.501Z,9.49
2023-03-31T04:14:23.540Z,9.52
2023-03-31T04:15:23.478Z,9.53
2023-03-31T04:16:23.634Z,9.53
2023-03-31T04:17:23.593Z,9.60
2023-03-31T04:18:23.532Z,9.62
2023-03-31T04:19:23.445Z,9.53
2023-03-31T04:20:23.495Z,9.58
2023-03-31T04:21:23.462Z,9.59
2023-03-31T04:22:23.531Z,9.56
2023-03-31T04:23:23.490Z,9.65
2023-03-31T04:24:23.425Z,9.67
2023-03-31T04:25:23.452Z,9.65
2023-03-31T04:26:23.618Z,9.73
2023-03-31T04:27:23.397Z,9.70
2023-03-31T04:28:23.539Z,9.70
2023-03-31T04:29:23.407Z,9.67
2023-03-31T04:30:23.395Z,9.73
2023-03-31T04:31:23.383Z,9.60
2023-03-31T04:32:23.442Z,9.65
2023-03-31T04:33:23.374Z,9.59
2023-03-31T04:34:23.357Z,9.62
2023-03-31T04:35:23.343Z,9.65
2023-03-31T04:36:23.352Z,9.55
2023-03-31T04:37:23.324Z,9.59
2023-03-31T04:38:23.362Z,9.59
2023-03-31T04:39:23.323Z,9.71
2023-03-31T04:40:23.314Z,9.55
2023-03-31T04:41:23.309Z,9.59
2023-03-31T04:42:23.299Z,9.63
2023-03-31T04:43:23.314Z,9.65
2023-03-31T04:44:23.340Z,9.73
2023-03-31T04:45:23.279Z,9.59
2023-03-31T04:46:23.327Z,9.74
2023-03-31T04:47:23.261Z,9.67
2023-03-31T04:48:23.292Z,9.59
2023-03-31T04:49:23.246Z,9.60
2023-03-31T04:50:23.303Z,9.62
2023-03-31T04:51:23.235Z,9.62
2023-03-31T04:52:23.240Z,9.62
2023-03-31T04:53:23.258Z,9.63
2023-03-31T04:54:23.236Z,9.62
2023-03-31T04:55:23.241Z,9.68
2023-03-31T04:56:23.240Z,9.63
2023-03-31T04:57:23.255Z,9.59
2023-03-31T04:58:23.181Z,9.52
2023-03-31T04:59:23.182Z,9.58
2023-03-31T05:00:23.205Z,9.59
2023-03-31T05:01:23.236Z,9.59
2023-03-31T05:02:24.909Z,9.73
2023-03-31T05:03:23.334Z,9.60
2023-03-31T05:04:23.153Z,9.71
2023-03-31T05:05:23.140Z,9.58
2023-03-31T05:06:23.110Z,9.60
2023-03-31T05:07:23.140Z,9.67
2023-03-31T05:08:23.250Z,9.68
2023-03-31T05:09:23.113Z,9.55
2023-03-31T05:10:23.093Z,9.63
2023-03-31T05:11:23.122Z,9.59
2023-03-31T05:12:23.106Z,9.62
2023-03-31T05:13:23.114Z,9.60
2023-03-31T05:14:23.097Z,9.67
2023-03-31T05:15:23.078Z,9.58
2023-03-31T05:16:23.093Z,9.63
2023-03-31T05:17:23.056Z,9.58
2023-03-31T05:18:23.065Z,9.52
2023-03-31T05:19:23.086Z,9.60
2023-03-31T05:20:23.080Z,9.62
2023-03-31T05:21:23.046Z,9.52
2023-03-31T05:22:23.023Z,9.62
2023-03-31T05:23:23.018Z,9.70
2023-03-31T05:24:22.998Z,9.58
2023-03-31T05:25:23.010Z,9.58
2023-03-31T05:26:23.039Z,9.63
2023-03-31T05:27:22.985Z,9.60
2023-03-31T05:28:23.002Z,9.60
2023-03-31T05:29:22.956Z,9.59
2023-03-31T05:30:22.961Z,9.58
2023-03-31T05:31:23.000Z,9.62
2023-03-31T05:32:23.025Z,9.67
2023-03-31T05:33:22.937Z,9.71
2023-03-31T05:34:22.932Z,9.53
2023-03-31T05:35:22.925Z,9.59
2023-03-31T05:36:22.991Z,9.59
2023-03-31T05:37:22.911Z,9.56
2023-03-31T05:38:22.955Z,9.59
2023-03-31T05:39:22.915Z,9.63
2023-03-31T05:40:22.926Z,9.55
2023-03-31T05:41:22.879Z,9.55
2023-03-31T05:42:22.894Z,9.59
2023-03-31T05:43:22.882Z,9.63
2023-03-31T05:44:22.894Z,9.58
2023-03-31T05:45:22.873Z,9.59
2023-03-31T05:46:22.866Z,9.53
2023-03-31T05:47:22.854Z,9.60
2023-03-31T05:48:22.824Z,9.62
2023-03-31T05:49:22.833Z,9.49
2023-03-31T05:50:22.833Z,9.68
2023-03-31T05:51:22.810Z,9.71
2023-03-31T05:52:22.810Z,9.58
2023-03-31T05:53:22.827Z,9.62
2023-03-31T05:54:22.799Z,9.63
2023-03-31T05:55:22.768Z,9.58
2023-03-31T05:56:22.842Z,9.59
2023-03-31T05:57:22.857Z,9.56
2023-03-31T05:58:23.081Z,9.58
2023-03-31T05:59:22.725Z,9.58
2023-03-31T06:00:22.745Z,9.53
2023-03-31T06:01:22.884Z,9.60
2023-03-31T06:02:22.877Z,9.56
2023-03-31T06:03:22.800Z,9.55
2023-03-31T06:04:22.723Z,9.60
2023-03-31T06:05:22.717Z,9.58
2023-03-31T06:06:22.718Z,9.55
2023-03-31T06:07:22.694Z,9.56
2023-03-31T06:08:22.737Z,9.52
2023-03-31T06:09:22.679Z,9.58
2023-03-31T06:10:22.712Z,9.56
2023-03-31T06:11:22.682Z,9.52
2023-03-31T06:12:22.673Z,9.52
2023-03-31T06:13:22.675Z,9.56
2023-03-31T06:14:23.162Z,9.56
2023-03-31T06:15:22.662Z,9.56
2023-03-31T06:16:22.725Z,9.55
2023-03-31T06:17:22.670Z,9.52
2023-03-31T06:18:22.620Z,9.58
2023-03-31T06:19:33.788Z,9.59
2023-03-31T06:20:30.127Z,9.50
2023-03-31T06:21:23.590Z,9.62
2023-03-31T06:22:22.615Z,9.48
2023-03-31T06:23:22.575Z,9.49
2023-03-31T06:24:22.549Z,9.41
2023-03-31T06:25:22.587Z,9.52
2023-03-31T06:26:22.596Z,9.45
2023-03-31T06:27:22.522Z,9.50
2023-03-31T06:28:22.534Z,9.45
2023-03-31T06:29:22.521Z,9.42
2023-03-31T06:30:22.574Z,9.42
2023-03-31T06:31:22.527Z,9.49
2023-03-31T06:32:22.539Z,9.48
2023-03-31T06:33:22.495Z,9.42
2023-03-31T06:34:22.516Z,9.48
2023-03-31T06:35:22.485Z,9.41
2023-03-31T06:36:22.513Z,9.42
2023-03-31T06:37:22.465Z,9.48
2023-03-31T06:38:22.482Z,9.41
2023-03-31T06:39:22.464Z,9.50
2023-03-31T06:40:22.458Z,9.49
2023-03-31T06:41:22.610Z,9.42
2023-03-31T06:42:22.466Z,9.42
2023-03-31T06:43:22.433Z,9.48
2023-03-31T06:44:22.488Z,9.34
2023-03-31T06:45:22.417Z,9.31
2023-03-31T06:46:22.435Z,9.37
2023-03-31T06:47:22.413Z,9.40
2023-03-31T06:48:22.379Z,9.41
2023-03-31T06:49:24.783Z,9.38
2023-03-31T06:50:22.429Z,9.35
2023-03-31T06:51:22.369Z,9.31
2023-03-31T06:52:22.378Z,9.38
2023-03-31T06:53:22.396Z,9.32
2023-03-31T06:54:22.583Z,9.24
2023-03-31T06:55:22.357Z,9.30
2023-03-31T06:56:22.381Z,9.38
2023-03-31T06:57:22.404Z,9.38
2023-03-31T06:58:22.300Z,9.40
2023-03-31T06:59:22.303Z,9.40
2023-03-31T07:00:23.360Z,9.41
2023-03-31T07:01:22.334Z,9.37
2023-03-31T07:02:22.356Z,9.38
2023-03-31T07:03:22.439Z,9.42
2023-03-31T07:04:22.268Z,9.38
2023-03-31T07:05:22.270Z,9.40
2023-03-31T07:06:22.251Z,9.38
2023-03-31T07:07:22.249Z,9.22
2023-03-31T07:08:22.274Z,9.34
2023-03-31T07:09:22.216Z,9.31
2023-03-31T07:10:22.230Z,9.30
2023-03-31T07:11:22.218Z,9.26
2023-03-31T07:12:22.241Z,9.27
2023-03-31T07:13:22.213Z,9.19
2023-03-31T07:14:22.643Z,9.31
2023-03-31T07:15:22.201Z,9.34
2023-03-31T07:16:22.244Z,9.32
2023-03-31T07:17:22.209Z,9.35
2023-03-31T07:18:22.170Z,9.38
2023-03-31T07:19:22.168Z,9.30
2023-03-31T07:20:22.198Z,9.37
2023-03-31T07:21:22.141Z,9.30
2023-03-31T07:22:22.132Z,9.24
2023-03-31T07:23:22.157Z,9.34
2023-03-31T07:24:22.126Z,9.31
2023-03-31T07:25:22.108Z,9.27
2023-03-31T07:26:22.187Z,9.31
2023-03-31T07:27:23.582Z,9.38
2023-03-31T07:28:22.089Z,9.35
2023-03-31T07:29:22.072Z,9.34
2023-03-31T07:30:22.106Z,9.24
2023-03-31T07:31:22.082Z,9.27
2023-03-31T07:32:22.147Z,9.40
2023-03-31T07:33:22.074Z,9.37
2023-03-31T07:34:22.037Z,9.40
2023-03-31T07:35:22.066Z,9.40
2023-03-31T07:36:22.274Z,9.35
2023-03-31T07:37:22.020Z,9.38
2023-03-31T07:38:22.050Z,9.35
2023-03-31T07:39:22.002Z,9.34
2023-03-31T07:40:21.999Z,9.34
2023-03-31T07:41:22.020Z,9.38
2023-03-31T07:42:22.006Z,9.35
2023-03-31T07:43:21.988Z,9.32
2023-03-31T07:44:22.034Z,9.38
2023-03-31T07:45:21.962Z,9.49
2023-03-31T07:46:22.012Z,9.45
2023-03-31T07:47:21.961Z,9.55
2023-03-31T07:48:21.958Z,9.63
2023-03-31T07:49:21.962Z,9.56
2023-03-31T07:50:22.011Z,9.50
2023-03-31T07:51:21.940Z,9.45
2023-03-31T07:52:21.917Z,9.56
2023-03-31T07:53:21.967Z,9.58
2023-03-31T07:54:21.931Z,9.73
2023-03-31T07:55:21.899Z,9.73
2023-03-31T07:56:21.957Z,9.78
2023-03-31T07:57:21.917Z,9.83
2023-03-31T07:58:21.875Z,9.93
2023-03-31T07:59:21.870Z,9.99
2023-03-31T08:00:21.857Z,10.01
2023-03-31T08:01:21.875Z,10.11
2023-03-31T08:02:21.957Z,10.14
2023-03-31T08:03:21.851Z,10.20
2023-03-31T08:04:21.889Z,10.25
2023-03-31T08:05:21.875Z,10.28
2023-03-31T08:06:21.834Z,10.32
2023-03-31T08:07:21.800Z,10.31
2023-03-31T08:08:21.865Z,10.39
2023-03-31T08:09:21.815Z,10.54
2023-03-31T08:10:21.819Z,10.54
2023-03-31T08:11:21.805Z,10.73
2023-03-31T08:12:21.791Z,10.88
2023-03-31T08:13:21.804Z,10.73
2023-03-31T08:14:30.449Z,10.87
2023-03-31T08:15:22.760Z,10.88
2023-03-31T08:16:21.810Z,10.73
2023-03-31T08:17:21.728Z,10.84
2023-03-31T08:18:21.791Z,10.87
2023-03-31T08:19:21.717Z,10.84
2023-03-31T08:20:21.831Z,11.01
2023-03-31T08:21:24.220Z,11.09
2023-03-31T08:22:21.797Z,11.08
2023-03-31T08:23:21.701Z,11.13
2023-03-31T08:24:21.701Z,11.27
2023-03-31T08:25:21.720Z,11.13
2023-03-31T08:26:21.735Z,10.91
2023-03-31T08:27:21.692Z,10.83
2023-03-31T08:28:21.669Z,10.83
2023-03-31T08:29:21.673Z,10.73
2023-03-31T08:30:21.679Z,10.65
2023-03-31T08:31:21.777Z,10.57
2023-03-31T08:32:21.686Z,10.69
2023-03-31T08:33:21.635Z,10.75
2023-03-31T08:34:21.632Z,10.80
2023-03-31T08:35:21.626Z,10.81
2023-03-31T08:36:21.675Z,10.91
2023-03-31T08:37:21.650Z,11.02
2023-03-31T08:38:21.659Z,11.02
2023-03-31T08:39:21.589Z,11.17
2023-03-31T08:40:21.610Z,11.20
2023-03-31T08:41:21.546Z,11.16
2023-03-31T08:42:21.579Z,11.30
2023-03-31T08:43:21.570Z,11.26
2023-03-31T08:44:21.626Z,11.56
2023-03-31T08:45:21.601Z,11.75
2023-03-31T08:46:21.621Z,11.98
2023-03-31T08:47:21.547Z,12.29
2023-03-31T08:48:21.549Z,12.18
2023-03-31T08:49:21.575Z,12.25
2023-03-31T08:50:21.600Z,12.33
2023-03-31T08:51:21.555Z,12.38
2023-03-31T08:52:21.532Z,12.46
2023-03-31T08:53:21.490Z,12.58
2023-03-31T08:54:21.515Z,12.46
2023-03-31T08:55:21.479Z,12.59
2023-03-31T08:56:21.516Z,12.48
2023-03-31T08:57:21.522Z,12.48
2023-03-31T08:58:21.509Z,12.29
2023-03-31T08:59:21.471Z,12.15
2023-03-31T09:00:21.535Z,12.48
2023-03-31T09:01:21.472Z,12.58
2023-03-31T09:02:21.582Z,12.98
2023-03-31T09:03:21.519Z,12.70
2023-03-31T09:04:21.585Z,12.52
2023-03-31T09:05:21.427Z,12.73
2023-03-31T09:06:21.413Z,12.96
2023-03-31T09:07:21.421Z,12.84
2023-03-31T09:08:21.469Z,12.98
2023-03-31T09:09:21.431Z,13.06
2023-03-31T09:10:21.388Z,13.06
2023-03-31T09:11:21.369Z,12.96
2023-03-31T09:12:21.349Z,13.06
2023-03-31T09:13:21.377Z,12.81
2023-03-31T09:14:21.395Z,12.69
2023-03-31T09:15:21.340Z,12.71
2023-03-31T09:16:21.373Z,12.58
2023-03-31T09:17:21.319Z,12.62
2023-03-31T09:18:22.460Z,12.87
2023-03-31T09:19:21.386Z,13.04
2023-03-31T09:20:21.691Z,13.48
2023-03-31T09:21:21.308Z,13.39
2023-03-31T09:22:21.328Z,13.41
2023-03-31T09:23:21.315Z,13.55
2023-03-31T09:24:21.296Z,13.41
2023-03-31T09:25:21.308Z,13.51
2023-03-31T09:26:21.351Z,14.01
2023-03-31T09:27:21.271Z,14.64
2023-03-31T09:28:21.347Z,14.11
2023-03-31T09:29:21.248Z,13.88
2023-03-31T09:30:21.322Z,13.76
2023-03-31T09:31:21.273Z,14.12
2023-03-31T09:32:21.338Z,13.99
2023-03-31T09:33:21.223Z,13.83
2023-03-31T09:34:21.237Z,13.50
2023-03-31T09:35:21.248Z,13.39
2023-03-31T09:36:21.247Z,13.25
2023-03-31T09:37:21.192Z,13.54
2023-03-31T09:38:21.226Z,13.83
2023-03-31T09:39:21.283Z,14.08
2023-03-31T09:40:21.202Z,13.98
2023-03-31T09:41:21.253Z,13.76
2023-03-31T09:42:21.183Z,14.08
2023-03-31T09:43:21.136Z,14.05
2023-03-31T09:44:21.202Z,13.90
2023-03-31T09:45:21.183Z,13.51
2023-03-31T09:46:21.515Z,13.47
2023-03-31T09:47:21.210Z,13.72
2023-03-31T09:48:21.218Z,14.20
2023-03-31T09:49:21.098Z,14.35
2023-03-31T09:50:25.096Z,14.59
2023-03-31T09:51:21.104Z,14.66
2023-03-31T09:52:21.100Z,15.01
2023-03-31T09:53:21.154Z,15.84
2023-03-31T09:54:21.072Z,15.34
2023-03-31T09:55:35.998Z,15.22
2023-03-31T09:56:22.146Z,14.95
2023-03-31T09:57:21.110Z,14.20
2023-03-31T09:58:21.111Z,13.94
2023-03-31T09:59:21.052Z,13.94
2023-03-31T10:00:21.159Z,13.88
2023-03-31T10:01:21.030Z,14.05
2023-03-31T10:02:21.083Z,14.57
2023-03-31T10:03:21.009Z,15.40
2023-03-31T10:04:21.114Z,15.18
2023-03-31T10:05:21.042Z,14.57
2023-03-31T10:06:21.002Z,14.48
2023-03-31T10:07:20.984Z,14.64
2023-03-31T10:08:21.080Z,14.35
2023-03-31T10:09:20.954Z,14.45
2023-03-31T10:10:21.003Z,15.19
2023-03-31T10:11:20.973Z,15.73
2023-03-31T10:12:20.975Z,15.49
2023-03-31T10:13:20.951Z,15.88
2023-03-31T10:14:20.980Z,15.70
2023-03-31T10:15:20.946Z,15.31
2023-03-31T10:16:21.071Z,14.91
2023-03-31T10:17:20.955Z,14.67
2023-03-31T10:18:21.053Z,14.38
2023-03-31T10:19:20.919Z,13.99
2023-03-31T10:20:21.093Z,14.04
2023-03-31T10:21:20.895Z,14.04
2023-03-31T10:22:20.876Z,14.16
2023-03-31T10:23:20.953Z,13.98
2023-03-31T10:24:20.903Z,13.98
2023-03-31T10:25:20.881Z,14.12
2023-03-31T10:26:20.991Z,14.26
2023-03-31T10:27:20.872Z,14.01
2023-03-31T10:28:20.863Z,14.04
2023-03-31T10:29:23.674Z,14.19
2023-03-31T10:30:20.923Z,14.34
2023-03-31T10:31:20.846Z,14.11
2023-03-31T10:32:20.858Z,14.41
2023-03-31T10:33:23.060Z,14.61
2023-03-31T10:34:20.769Z,14.75
2023-03-31T10:35:20.869Z,15.23
2023-03-31T10:36:20.777Z,15.27
2023-03-31T10:37:20.760Z,15.15
2023-03-31T10:38:20.819Z,15.09
2023-03-31T10:39:20.756Z,15.18
2023-03-31T10:40:20.733Z,15.34
2023-03-31T10:41:20.756Z,15.19
2023-03-31T10:42:20.785Z,14.90
2023-03-31T10:43:20.789Z,14.67
2023-03-31T10:44:20.808Z,14.83
2023-03-31T10:45:35.751Z,14.80
2023-03-31T10:46:21.778Z,14.82
2023-03-31T10:47:20.669Z,14.54
2023-03-31T10:48:20.698Z,14.75
2023-03-31T10:49:20.728Z,14.86
2023-03-31T10:50:20.784Z,14.82
2023-03-31T10:51:20.731Z,14.80
2023-03-31T10:52:20.667Z,15.09
2023-03-31T10:53:20.651Z,14.82
2023-03-31T10:54:20.616Z,14.83
2023-03-31T10:55:20.621Z,14.71
2023-03-31T10:56:20.679Z,14.78
2023-03-31T10:57:20.614Z,14.59
2023-03-31T10:58:20.632Z,14.46
2023-03-31T10:59:20.579Z,14.54
2023-03-31T11:00:20.569Z,15.01
2023-03-31T11:01:20.597Z,14.83
2023-03-31T11:02:20.744Z,15.27
2023-03-31T11:03:20.696Z,15.53
2023-03-31T11:04:20.562Z,16.50
2023-03-31T11:05:20.571Z,17.00
2023-03-31T11:06:20.603Z,16.55
2023-03-31T11:07:20.532Z,16.07
2023-03-31T11:08:20.669Z,15.37
2023-03-31T11:09:20.578Z,15.20
2023-03-31T11:10:20.571Z,15.27
2023-03-31T11:11:20.554Z,15.22
2023-03-31T11:12:20.516Z,15.20
2023-03-31T11:13:20.500Z,14.98
2023-03-31T11:14:20.546Z,14.85
2023-03-31T11:15:20.508Z,14.90
2023-03-31T11:16:20.603Z,15.03
2023-03-31T11:17:20.487Z,15.64
2023-03-31T11:18:20.537Z,15.38
2023-03-31T11:19:20.446Z,15.22
2023-03-31T11:20:20.508Z,15.04
2023-03-31T11:21:20.479Z,15.12
2023-03-31T11:22:20.470Z,14.71
2023-03-31T11:23:20.437Z,14.61
2023-03-31T11:24:20.436Z,14.61
2023-03-31T11:25:20.472Z,14.54
2023-03-31T11:26:20.817Z,14.21
2023-03-31T11:27:20.441Z,13.94
2023-03-31T11:28:20.441Z,13.87
2023-03-31T11:29:20.387Z,13.66
2023-03-31T11:30:20.585Z,13.43
2023-03-31T11:31:20.461Z,13.12
2023-03-31T11:32:20.533Z,12.67
2023-03-31T11:33:20.366Z,12.29
2023-03-31T11:34:20.405Z,12.11
2023-03-31T11:35:20.410Z,11.85
2023-03-31T11:36:20.412Z,11.77
2023-03-31T11:37:20.309Z,11.81
2023-03-31T11:38:21.857Z,11.72
2023-03-31T11:39:21.367Z,11.67
2023-03-31T11:40:20.395Z,11.54
2023-03-31T11:41:20.298Z,11.51
2023-03-31T11:42:20.285Z,11.44
2023-03-31T11:43:20.327Z,11.39
2023-03-31T11:44:20.360Z,11.36
2023-03-31T11:45:20.299Z,11.26
2023-03-31T11:46:20.335Z,11.36
2023-03-31T11:47:20.262Z,11.35
2023-03-31T11:48:20.268Z,11.45
2023-03-31T11:49:20.238Z,11.49
2023-03-31T11:50:20.260Z,11.49
2023-03-31T11:51:20.256Z,11.70
2023-03-31T11:52:20.268Z,11.94
2023-03-31T11:53:20.219Z,12.07
2023-03-31T11:54:20.177Z,12.22
2023-03-31T11:55:20.175Z,12.44
2023-03-31T11:56:20.207Z,12.58
2023-03-31T11:57:20.250Z,12.56
2023-03-31T11:58:20.187Z,12.49
2023-03-31T11:59:20.136Z,12.52
2023-03-31T12:00:20.153Z,12.71
2023-03-31T12:01:20.195Z,13.04
2023-03-31T12:02:20.189Z,13.24
2023-03-31T12:03:20.175Z,13.63
2023-03-31T12:04:20.134Z,13.76
2023-03-31T12:05:20.128Z,14.59
2023-03-31T12:06:20.186Z,14.78
2023-03-31T12:07:20.127Z,14.35
2023-03-31T12:08:20.141Z,14.64
2023-03-31T12:09:20.094Z,14.53
2023-03-31T12:10:20.114Z,14.78
2023-03-31T12:11:20.082Z,14.97
2023-03-31T12:12:20.083Z,14.66
2023-03-31T12:13:20.061Z,14.13
2023-03-31T12:14:20.099Z,14.08
2023-03-31T12:15:20.055Z,13.90
2023-03-31T12:16:20.109Z,13.98
2023-03-31T12:17:20.039Z,14.12
2023-03-31T12:18:20.029Z,14.38
2023-03-31T12:19:20.030Z,14.41
2023-03-31T12:20:20.057Z,14.34
2023-03-31T12:21:19.990Z,14.60
2023-03-31T12:22:19.991Z,14.82
2023-03-31T12:23:19.986Z,14.69
2023-03-31T12:24:19.993Z,14.63
2023-03-31T12:25:19.985Z,14.09
2023-03-31T12:26:20.050Z,13.98
2023-03-31T12:27:20.022Z,13.98
2023-03-31T12:28:19.983Z,13.72
2023-03-31T12:29:19.947Z,13.53
2023-03-31T12:30:19.945Z,13.79
2023-03-31T12:31:19.980Z,14.01
2023-03-31T12:32:20.177Z,13.76
2023-03-31T12:33:19.913Z,13.90
2023-03-31T12:34:19.913Z,13.71
2023-03-31T12:35:19.887Z,13.80
2023-03-31T12:36:19.954Z,13.88
2023-03-31T12:37:19.896Z,13.94
2023-03-31T12:38:20.000Z,13.44
2023-03-31T12:39:19.884Z,13.32
2023-03-31T12:40:19.946Z,13.27
2023-03-31T12:41:19.901Z,13.03
2023-03-31T12:42:19.849Z,12.74
2023-03-31T12:43:19.865Z,12.52
2023-03-31T12:44:19.896Z,12.46
2023-03-31T12:45:19.831Z,12.18
2023-03-31T12:46:19.815Z,11.74
2023-03-31T12:47:19.886Z,10.75
2023-03-31T12:48:20.015Z,10.01
2023-03-31T12:49:20.008Z,9.68
2023-03-31T12:50:22.138Z,9.48
2023-03-31T12:51:19.839Z,9.48
2023-03-31T12:52:20.380Z,9.58
2023-03-31T12:53:19.804Z,9.62
2023-03-31T12:54:19.842Z,9.68
2023-03-31T12:55:19.774Z,9.73
2023-03-31T12:56:19.794Z,9.85
2023-03-31T12:58:19.741Z,9.80
2023-03-31T12:59:19.774Z,9.81
2023-03-31T13:00:19.915Z,9.71
2023-03-31T13:01:19.861Z,9.75
2023-03-31T13:02:19.805Z,9.78
2023-03-31T13:03:19.890Z,9.83
2023-03-31T13:04:19.751Z,9.86
2023-03-31T13:05:23.733Z,9.85
2023-03-31T13:06:19.798Z,9.89